Startpagina
METAR-TAF:

METAR-TAF

Vliegvelden :

Aeroporto de Congonhas/São Paulo

São Paulo, São Paulo, Brazilië

breedte: 23-37S, lengte: 046-39W, hoogte: 803 m

Actueel weer

Dit bericht is 26 minuten geleden gemaakt, om 22:00 UTC
Wind 4 kt uit het westen, variërend tussen het zuidzuidwesten en het noordwesten
Temperatuur 23°C
Vochtigheid 47%
Druk 1024 hPa
Zicht 10 km of meer
geen wolken onder 1500 m en geen cumulonimbus

METAR: SBSP 222200Z 26004KT 200V320 CAVOK 23/11 Q1024

Tijdstip: 19:26 (22:26 UTC)

Verwachting

Dit bericht is 6 uur en het 26 minuten geleden gemaakt, om 16:00 UTC
Verwachting geldig van 22 om 18 UTC tot 23 om 06 UTC
Wind 7 kt uit het oostnoordoosten
Zicht 10 km of meer
geen wolken onder 1500 m en geen cumulonimbus
Wijzigt naar
van 23 om 00 UTC tot 23 om 02 UTC
Wind 5 kt uit het noordnoordoosten

TAF: SBSP 221600Z 2218/2306 06007KT CAVOK TX23/2218Z TN16/2305Z BECMG 2300/2302 03005KT RMK PGG

Waarnemingen en weersverwachtingen van meer dan 4000 vliegvelden (METAR en TAF).

De beschikbare stations zijn de gele en rode punten op de kaart.

Ga met uw muis naar het station om de naam te zien.

Klik dan om waarnemingen en weersverwachtingen te zien.

kaart wijzigen: klik op de groene knoppen met een zwart kruis om in te zoomen, op de groene knop met een streepje om uit te zoomen of op de groene pijlen voor aangrenzende kaarten.


METAR-TAF: